createdAt,value
2019-04-23T00:01:50.935Z,3.67
2019-04-23T00:04:08.453Z,8.10
2019-04-23T00:06:43.322Z,6.90
2019-04-23T00:09:12.646Z,4.00
2019-04-23T00:11:41.590Z,3.00
2019-04-23T00:14:11.931Z,3.40
2019-04-23T00:16:42.687Z,6.03
2019-04-23T00:19:03.193Z,3.63
2019-04-23T00:21:54.990Z,4.40
2019-04-23T00:27:22.576Z,3.80
2019-04-23T00:32:15.366Z,7.10
2019-04-23T00:34:49.656Z,2.80
2019-04-23T00:37:18.837Z,3.70
2019-04-23T00:39:48.947Z,5.00
2019-04-23T00:42:17.295Z,4.70
2019-04-23T00:44:46.189Z,4.00
2019-04-23T00:47:23.182Z,3.50
2019-04-23T00:49:50.611Z,3.80
2019-04-23T00:52:24.335Z,4.60
2019-04-23T00:55:01.747Z,3.70
2019-04-23T00:57:25.817Z,2.70
2019-04-23T01:00:03.442Z,5.77
2019-04-23T01:02:29.705Z,3.13
2019-04-23T01:04:55.869Z,3.70
2019-04-23T01:07:29.765Z,4.93
2019-04-23T01:12:31.262Z,3.67
2019-04-23T01:14:57.381Z,4.10
2019-04-23T01:17:36.965Z,3.30
2019-04-23T01:20:04.761Z,5.43
2019-04-23T01:22:14.676Z,5.73
2019-04-23T01:25:07.365Z,4.13
2019-04-23T01:28:08.062Z,3.23
2019-04-23T01:30:42.544Z,5.53
2019-04-23T01:33:12.238Z,4.07
2019-04-23T01:35:33.524Z,4.20
2019-04-23T01:38:11.142Z,4.47
2019-04-23T01:40:42.510Z,4.00
2019-04-23T01:43:07.977Z,4.33
2019-04-23T01:45:35.573Z,4.90
2019-04-23T01:48:12.792Z,4.20
2019-04-23T01:50:48.283Z,4.90
2019-04-23T01:53:23.336Z,6.80
2019-04-23T01:55:47.242Z,4.37
2019-04-23T01:58:38.353Z,4.47
2019-04-23T02:00:47.669Z,3.87
2019-04-23T02:05:50.086Z,5.90
2019-04-23T02:08:15.623Z,4.10
2019-04-23T02:11:05.349Z,3.70
2019-04-23T02:13:28.200Z,4.73
2019-04-23T02:15:47.475Z,6.67
2019-04-23T02:18:20.603Z,4.63
2019-04-23T02:20:56.485Z,5.03
2019-04-23T02:23:30.056Z,6.60
2019-04-23T02:25:53.807Z,4.50
2019-04-23T02:28:49.636Z,4.90
2019-04-23T02:33:43.874Z,5.13
2019-04-23T02:36:03.843Z,7.87
2019-04-23T02:41:13.075Z,5.00
2019-04-23T02:43:59.139Z,5.27
2019-04-23T02:51:08.963Z,4.20
2019-04-23T02:58:43.803Z,6.87
2019-04-23T03:01:21.902Z,7.10
2019-04-23T03:04:17.364Z,5.23
2019-04-23T03:06:16.661Z,5.63
2019-04-23T03:11:15.598Z,6.23
2019-04-23T03:16:45.472Z,4.70
2019-04-23T03:19:07.025Z,7.00
2019-04-23T03:21:52.226Z,4.83
2019-04-23T03:24:34.253Z,6.77
2019-04-23T03:27:15.164Z,5.80
2019-04-23T03:29:35.429Z,5.70
2019-04-23T03:35:09.051Z,6.10
2019-04-23T03:37:19.776Z,5.20
2019-04-23T03:39:30.005Z,5.70
2019-04-23T03:42:12.005Z,10.33
2019-04-23T03:44:29.848Z,8.67
2019-04-23T03:49:30.052Z,5.47
2019-04-23T03:52:07.559Z,7.07
2019-04-23T03:54:42.252Z,6.30
2019-04-23T03:59:39.335Z,9.37
2019-04-23T04:02:37.695Z,5.17
2019-04-23T04:07:11.769Z,10.30
2019-04-23T04:12:04.482Z,6.93
2019-04-23T04:17:12.385Z,6.03
2019-04-23T04:19:39.697Z,6.77
2019-04-23T04:22:11.406Z,5.90
2019-04-23T04:29:52.274Z,6.80
2019-04-23T04:35:12.514Z,5.30
2019-04-23T04:37:36.084Z,5.47
2019-04-23T04:47:15.807Z,5.87
2019-04-23T04:49:50.931Z,7.67
2019-04-23T04:54:24.417Z,6.17
2019-04-23T04:57:24.173Z,6.53
2019-04-23T04:59:55.629Z,7.90
2019-04-23T05:04:59.654Z,7.43
2019-04-23T05:07:19.008Z,6.20
2019-04-23T05:10:08.792Z,8.70
2019-04-23T05:12:21.977Z,7.83
2019-04-23T05:17:30.193Z,8.03
2019-04-23T05:19:58.825Z,7.33
2019-04-23T05:22:24.443Z,7.00
2019-04-23T05:25:05.674Z,10.23
2019-04-23T05:27:21.677Z,7.73
2019-04-23T05:30:02.961Z,6.70
2019-04-23T05:32:20.523Z,7.00
2019-04-23T05:34:56.152Z,7.03
2019-04-23T05:37:33.474Z,6.53
2019-04-23T05:39:56.650Z,6.63
2019-04-23T05:42:27.849Z,7.80
2019-04-23T05:45:02.905Z,7.07
2019-04-23T05:47:29.180Z,6.70
2019-04-23T05:50:02.078Z,9.67
2019-04-23T05:55:01.519Z,6.40
2019-04-23T05:57:36.142Z,7.60
2019-04-23T06:00:02.147Z,8.33
2019-04-23T06:02:33.671Z,9.73
2019-04-23T06:05:06.805Z,6.80
2019-04-23T06:07:47.416Z,7.83
2019-04-23T06:10:06.461Z,11.40
2019-04-23T06:12:33.567Z,10.43
2019-04-23T06:15:05.618Z,8.70
2019-04-23T06:17:57.757Z,14.33
2019-04-23T06:20:10.267Z,9.13
2019-04-23T06:25:15.127Z,9.00
2019-04-23T06:27:37.973Z,11.50
2019-04-23T06:30:06.797Z,9.63
2019-04-23T06:32:37.394Z,7.93
2019-04-23T06:35:11.763Z,9.63
2019-04-23T06:38:04.858Z,6.70
2019-04-23T06:40:27.556Z,8.30
2019-04-23T06:42:57.938Z,7.77
2019-04-23T06:45:30.788Z,11.70
2019-04-23T06:48:07.370Z,6.73
2019-04-23T06:50:39.569Z,7.33
2019-04-23T06:52:55.803Z,6.90
2019-04-23T06:55:35.592Z,8.70
2019-04-23T06:58:08.374Z,11.07
2019-04-23T07:00:42.021Z,15.63
2019-04-23T07:03:14.851Z,9.07
2019-04-23T07:06:12.083Z,9.20
2019-04-23T07:08:44.396Z,10.00
2019-04-23T07:11:14.249Z,7.43
2019-04-23T07:13:50.810Z,9.63
2019-04-23T07:16:03.209Z,7.33
2019-04-23T07:18:34.457Z,8.20
2019-04-23T07:21:15.421Z,10.90
2019-04-23T07:23:52.640Z,11.67
2019-04-23T07:26:18.995Z,8.50
2019-04-23T07:28:48.535Z,7.33
2019-04-23T07:31:13.514Z,7.80
2019-04-23T07:33:44.713Z,13.00
2019-04-23T07:36:20.682Z,9.07
2019-04-23T07:38:56.111Z,13.40
2019-04-23T07:41:25.255Z,8.37
2019-04-23T07:44:02.700Z,8.57
2019-04-23T07:46:40.782Z,8.00
2019-04-23T07:49:02.629Z,7.87
2019-04-23T07:51:37.138Z,8.97
2019-04-23T07:56:35.839Z,6.87
2019-04-23T07:59:07.281Z,6.50
2019-04-23T08:01:34.961Z,11.87
2019-04-23T08:04:04.696Z,9.20
2019-04-23T08:06:37.598Z,7.87
2019-04-23T08:09:09.109Z,7.97
2019-04-23T08:14:03.527Z,14.87
2019-04-23T08:16:36.797Z,7.30
2019-04-23T08:19:05.768Z,9.80
2019-04-23T08:21:40.377Z,6.03
2019-04-23T08:24:29.148Z,8.63
2019-04-23T08:26:59.630Z,7.23
2019-04-23T08:29:30.978Z,6.60
2019-04-23T08:32:12.383Z,8.40
2019-04-23T08:34:58.641Z,7.17
2019-04-23T08:39:57.112Z,11.03
2019-04-23T08:45:11.969Z,8.40
2019-04-23T08:47:33.964Z,7.70
2019-04-23T08:50:04.820Z,9.33
2019-04-23T08:52:29.968Z,7.63
2019-04-23T08:55:08.685Z,6.17
2019-04-23T08:57:32.459Z,7.57
2019-04-23T09:00:09.049Z,7.57
2019-04-23T09:02:40.272Z,7.73
2019-04-23T09:05:16.199Z,7.87
2019-04-23T09:07:45.062Z,7.80
2019-04-23T09:10:17.854Z,11.47
2019-04-23T09:12:44.967Z,10.07
2019-04-23T09:15:26.341Z,7.13
2019-04-23T09:17:49.597Z,8.07
2019-04-23T09:22:42.169Z,8.37
2019-04-23T09:25:26.033Z,7.90
2019-04-23T09:27:45.202Z,6.53
2019-04-23T09:30:23.388Z,7.13
2019-04-23T09:32:43.388Z,7.23
2019-04-23T09:38:13.126Z,6.93
2019-04-23T09:41:19.907Z,6.60
2019-04-23T09:43:33.166Z,6.80
2019-04-23T09:46:14.562Z,5.90
2019-04-23T09:48:47.164Z,6.17
2019-04-23T09:51:12.819Z,6.17
2019-04-23T09:53:35.841Z,8.80
2019-04-23T09:56:00.865Z,9.23
2019-04-23T09:58:31.039Z,7.37
2019-04-23T10:01:23.482Z,6.87
2019-04-23T10:03:38.714Z,7.50
2019-04-23T10:06:04.284Z,6.70
2019-04-23T10:08:32.143Z,6.50
2019-04-23T10:10:57.508Z,5.63
2019-04-23T10:13:26.610Z,6.70
2019-04-23T10:15:55.611Z,7.10
2019-04-23T10:18:24.523Z,9.03
2019-04-23T10:20:54.267Z,7.13
2019-04-23T10:23:23.191Z,8.70
2019-04-23T10:25:52.286Z,6.87
2019-04-23T10:28:31.779Z,8.83
2019-04-23T10:31:00.904Z,7.80
2019-04-23T10:33:29.643Z,6.03
2019-04-23T10:36:03.250Z,6.97
2019-04-23T10:38:30.205Z,6.70
2019-04-23T10:41:00.159Z,7.10
2019-04-23T10:43:30.995Z,7.07
2019-04-23T10:46:23.209Z,7.10
2019-04-23T10:49:31.818Z,11.23
2019-04-23T10:52:07.088Z,8.53
2019-04-23T10:54:32.906Z,8.90
2019-04-23T10:56:53.204Z,8.37
2019-04-23T11:07:26.939Z,11.10
2019-04-23T11:09:55.776Z,9.53
2019-04-23T11:17:46.557Z,9.27
2019-04-23T11:22:45.391Z,14.80
2019-04-23T11:25:30.043Z,6.30
2019-04-23T11:27:51.909Z,8.13
2019-04-23T11:30:26.317Z,8.23
2019-04-23T11:32:54.307Z,8.23
2019-04-23T11:35:26.033Z,5.93
2019-04-23T11:38:21.978Z,11.13
2019-04-23T11:40:21.387Z,8.53
2019-04-23T11:42:52.931Z,6.57
2019-04-23T11:45:34.934Z,7.67
2019-04-23T11:50:32.805Z,9.93
2019-04-23T11:55:32.689Z,6.37
2019-04-23T11:58:08.184Z,9.07
2019-04-23T12:00:26.836Z,6.80
2019-04-23T12:03:17.984Z,8.83
2019-04-23T12:05:50.063Z,8.53
2019-04-23T12:08:33.383Z,6.40
2019-04-23T12:11:30.656Z,10.47
2019-04-23T12:13:35.533Z,8.73
2019-04-23T12:16:04.399Z,7.70
2019-04-23T12:18:38.731Z,6.20
2019-04-23T12:21:04.426Z,8.73
2019-04-23T12:26:11.570Z,9.90
2019-04-23T12:28:43.990Z,7.70
2019-04-23T12:31:12.960Z,8.20
2019-04-23T12:33:45.260Z,8.00
2019-04-23T12:36:43.777Z,6.63
2019-04-23T12:39:09.108Z,7.13
2019-04-23T12:41:30.579Z,7.50
2019-04-23T12:44:03.566Z,6.57
2019-04-23T12:46:29.975Z,6.40
2019-04-23T12:49:07.003Z,8.43
2019-04-23T12:51:41.835Z,8.70
2019-04-23T12:53:56.299Z,6.73
2019-04-23T12:56:43.850Z,6.33
2019-04-23T12:58:56.290Z,7.53
2019-04-23T13:01:44.319Z,10.40
2019-04-23T13:03:59.808Z,7.20
2019-04-23T13:06:27.882Z,8.80
2019-04-23T13:09:18.504Z,7.27
2019-04-23T13:11:36.702Z,7.20
2019-04-23T13:14:08.897Z,10.30
2019-04-23T13:19:13.775Z,10.93
2019-04-23T13:24:11.339Z,8.53
2019-04-23T13:26:37.965Z,7.37
2019-04-23T13:29:18.777Z,8.87
2019-04-23T13:31:34.309Z,8.43
2019-04-23T13:34:16.307Z,7.60
2019-04-23T13:39:20.996Z,8.77
2019-04-23T13:41:40.599Z,8.93
2019-04-23T13:44:17.578Z,7.30
2019-04-23T13:46:40.990Z,8.10
2019-04-23T13:49:16.587Z,8.77
2019-04-23T13:52:06.036Z,9.37
2019-04-23T13:57:27.174Z,6.87
2019-04-23T13:59:23.765Z,9.57
2019-04-23T14:04:34.971Z,9.07
2019-04-23T14:06:55.557Z,8.77
2019-04-23T14:09:36.029Z,9.07
2019-04-23T14:12:03.468Z,7.73
2019-04-23T14:14:43.783Z,8.73
2019-04-23T14:17:13.073Z,6.97
2019-04-23T14:19:28.014Z,8.23
2019-04-23T14:22:20.941Z,7.40
2019-04-23T14:24:45.197Z,7.37
2019-04-23T14:27:10.863Z,7.87
2019-04-23T14:29:39.400Z,6.87
2019-04-23T14:32:08.904Z,8.17
2019-04-23T14:34:40.839Z,6.90
2019-04-23T14:37:04.175Z,9.40
2019-04-23T14:39:40.750Z,11.93
2019-04-23T14:42:30.952Z,9.87
2019-04-23T14:44:31.195Z,11.80
2019-04-23T14:47:17.926Z,9.60
2019-04-23T14:49:45.432Z,12.07
2019-04-23T14:52:14.415Z,10.70
2019-04-23T14:55:25.313Z,9.80
2019-04-23T14:57:24.607Z,9.43
2019-04-23T14:59:53.833Z,7.20
2019-04-23T15:02:25.693Z,7.23
2019-04-23T15:07:28.474Z,6.87
2019-04-23T15:10:01.212Z,6.67
2019-04-23T15:15:10.474Z,9.10
2019-04-23T15:17:28.462Z,7.70
2019-04-23T15:20:16.506Z,8.50
2019-04-23T15:25:21.597Z,9.53
2019-04-23T15:29:51.204Z,8.40
2019-04-23T15:32:44.580Z,7.50
2019-04-23T15:35:15.243Z,8.87
2019-04-23T15:40:11.159Z,7.97
2019-04-23T15:42:43.904Z,8.80
2019-04-23T15:45:09.338Z,7.40
2019-04-23T15:47:40.438Z,10.90
2019-04-23T15:50:19.900Z,8.90
2019-04-23T15:52:46.254Z,6.17
2019-04-23T15:55:06.054Z,9.17
2019-04-23T16:00:13.022Z,7.17
2019-04-23T16:02:13.679Z,8.97
2019-04-23T16:04:42.159Z,9.27
2019-04-23T16:07:21.508Z,8.20
2019-04-23T16:10:14.507Z,12.20
2019-04-23T16:12:41.626Z,9.93
2019-04-23T16:17:41.355Z,9.60
2019-04-23T16:20:31.865Z,9.77
2019-04-23T16:23:09.515Z,10.30
2019-04-23T16:28:00.516Z,11.60
2019-04-23T16:30:25.782Z,9.00
2019-04-23T16:33:08.372Z,6.93
2019-04-23T16:35:43.989Z,7.83
2019-04-23T16:40:44.495Z,7.90
2019-04-23T16:45:45.425Z,8.17
2019-04-23T16:48:26.390Z,8.47
2019-04-23T16:51:01.301Z,9.30
2019-04-23T16:55:47.560Z,7.13
2019-04-23T16:58:28.040Z,9.47
2019-04-23T17:01:01.222Z,7.57
2019-04-23T17:03:31.337Z,11.70
2019-04-23T17:05:57.863Z,7.60
2019-04-23T17:13:27.553Z,9.83
2019-04-23T17:16:00.235Z,10.63
2019-04-23T17:18:24.506Z,7.30
2019-04-23T17:20:51.993Z,7.33
2019-04-23T17:23:35.776Z,11.73
2019-04-23T17:25:55.645Z,11.60
2019-04-23T17:28:24.750Z,12.00
2019-04-23T17:31:05.254Z,7.53
2019-04-23T17:33:36.862Z,13.30
2019-04-23T17:36:18.281Z,7.30
2019-04-23T17:41:38.873Z,8.70
2019-04-23T17:44:12.564Z,8.67
2019-04-23T17:46:34.199Z,10.70
2019-04-23T17:49:13.156Z,12.93
2019-04-23T17:51:31.187Z,10.70
2019-04-23T17:54:12.116Z,12.10
2019-04-23T17:56:45.457Z,12.13
2019-04-23T17:59:15.907Z,13.30
2019-04-23T18:01:35.285Z,14.87
2019-04-23T18:04:22.670Z,13.03
2019-04-23T18:06:58.377Z,13.43
2019-04-23T18:09:15.245Z,15.47
2019-04-23T18:11:35.727Z,9.40
2019-04-23T18:14:08.484Z,11.53
2019-04-23T18:16:46.262Z,13.23
2019-04-23T18:19:12.662Z,10.57
2019-04-23T18:27:00.020Z,13.27
2019-04-23T18:29:40.377Z,10.33
2019-04-23T18:32:13.124Z,12.83
2019-04-23T18:35:02.421Z,11.80
2019-04-23T18:37:16.514Z,11.07
2019-04-23T18:39:47.022Z,12.50
2019-04-23T18:42:19.075Z,9.97
2019-04-23T18:44:43.633Z,11.07
2019-04-23T18:52:26.113Z,9.73
2019-04-23T18:54:56.965Z,12.10
2019-04-23T18:57:27.406Z,8.73
2019-04-23T18:59:50.894Z,10.30
2019-04-23T19:05:08.663Z,16.73
2019-04-23T19:07:42.981Z,9.27
2019-04-23T19:12:44.322Z,13.07
2019-04-23T19:15:17.396Z,10.50
2019-04-23T19:17:46.540Z,9.47
2019-04-23T19:20:19.249Z,12.20
2019-04-23T19:22:46.906Z,10.40
2019-04-23T19:25:11.356Z,7.77
2019-04-23T19:27:40.496Z,11.10
2019-04-23T19:30:13.501Z,12.53
2019-04-23T19:32:50.693Z,8.67
2019-04-23T19:35:23.744Z,12.23
2019-04-23T19:37:59.436Z,11.53
2019-04-23T19:40:10.024Z,10.93
2019-04-23T19:42:52.464Z,12.60
2019-04-23T19:45:24.588Z,12.50
2019-04-23T19:47:56.801Z,11.43
2019-04-23T19:50:24.014Z,12.40
2019-04-23T19:53:03.540Z,11.23
2019-04-23T19:55:16.969Z,14.93
2019-04-23T19:57:51.106Z,9.93
2019-04-23T20:00:17.538Z,10.90
2019-04-23T20:03:13.590Z,10.90
2019-04-23T20:05:23.500Z,12.33
2019-04-23T20:10:24.787Z,10.60
2019-04-23T20:12:52.919Z,12.40
2019-04-23T20:15:18.068Z,12.60
2019-04-23T20:17:54.497Z,11.17
2019-04-23T20:20:28.687Z,14.93
2019-04-23T20:22:51.428Z,11.00
2019-04-23T20:26:01.091Z,11.50
2019-04-23T20:28:19.333Z,12.87
2019-04-23T20:31:04.105Z,10.20
2019-04-23T20:36:16.069Z,11.07
2019-04-23T20:38:39.988Z,13.00
2019-04-23T20:43:46.653Z,10.77
2019-04-23T20:51:08.667Z,11.47
2019-04-23T20:53:47.033Z,14.07
2019-04-23T20:59:06.245Z,11.73
2019-04-23T21:01:38.613Z,13.17
2019-04-23T21:04:03.365Z,11.90
2019-04-23T21:06:47.027Z,9.87
2019-04-23T21:11:47.912Z,11.57
2019-04-23T21:14:41.219Z,11.23
2019-04-23T21:16:42.734Z,10.57
2019-04-23T21:19:13.787Z,10.20
2019-04-23T21:22:05.997Z,12.67
2019-04-23T21:24:39.711Z,11.90
2019-04-23T21:27:27.577Z,14.57
2019-04-23T21:29:58.522Z,12.70
2019-04-23T21:32:27.231Z,12.10
2019-04-23T21:34:56.413Z,12.03
2019-04-23T21:37:27.659Z,14.83
2019-04-23T21:40:20.888Z,12.83
2019-04-23T21:45:06.349Z,16.37
2019-04-23T21:47:46.509Z,14.00
2019-04-23T21:52:46.370Z,10.93
2019-04-23T21:55:14.722Z,13.27
2019-04-23T21:57:53.228Z,13.97
2019-04-23T22:00:08.656Z,10.00
2019-04-23T22:03:01.230Z,11.10
2019-04-23T22:05:15.905Z,15.47
2019-04-23T22:07:51.866Z,10.63
2019-04-23T22:10:21.987Z,11.10
2019-04-23T22:13:00.546Z,12.17
2019-04-23T22:15:13.339Z,12.67
2019-04-23T22:17:44.746Z,12.00
2019-04-23T22:22:56.930Z,10.47
2019-04-23T22:25:13.369Z,10.77
2019-04-23T22:27:52.979Z,10.87
2019-04-23T22:30:21.373Z,10.27
2019-04-23T22:32:56.164Z,13.13
2019-04-23T22:37:58.286Z,11.80
2019-04-23T22:40:28.364Z,12.57
2019-04-23T22:45:26.577Z,15.10
2019-04-23T22:50:28.272Z,15.40
2019-04-23T22:53:00.664Z,16.80
2019-04-23T22:55:32.362Z,12.90
2019-04-23T22:58:04.740Z,13.50
2019-04-23T23:00:24.348Z,13.83
2019-04-23T23:08:20.498Z,14.20
2019-04-23T23:10:51.948Z,13.60
2019-04-23T23:13:28.478Z,13.00
2019-04-23T23:15:59.614Z,13.80
2019-04-23T23:23:21.438Z,14.63
2019-04-23T23:26:04.307Z,12.70
2019-04-23T23:28:31.386Z,12.50
2019-04-23T23:33:30.592Z,11.43
2019-04-23T23:38:33.455Z,13.17
2019-04-23T23:46:17.253Z,14.10
2019-04-23T23:48:35.613Z,14.87
2019-04-23T23:51:11.465Z,14.07
2019-04-23T23:53:51.248Z,13.67
2019-04-23T23:56:12.738Z,10.80
2019-04-23T23:58:47.343Z,13.83
